Amalia — SXMT — position and weather

sailwx.info

Track history (hours):
 
Tides and Currents Weather Stations Pressure Air Temp Water Temp Dewpoint Dewpoint Depression Visibility Wind Speed Wind Dir Waves Ship Positions

Amalia

Last reported at 2015-Apr-25 03:15 UTC. Time now 2015-May-07 07:37 UTC.
Position N 02°05' E 102°07'.
Warning: this ship's position is 12 days out of date.

Length 225 m; draft 8.3 m.

Type: Cargo ship. MMSI: 239652000.

Date/timePositionNaut miles runAvg speedWind from/ knotsBaromVisibWave heightAir tempDewpointWater temp
2015-Apr-25 03:15N 02°05' E 102°07'1112.4
2015-Apr-25 02:22N 01°58' E 102°15'1112.9
2015-Apr-25 01:33N 01°53' E 102°24'1413.5
2015-Apr-25 00:32N 01°48' E 102°37'1514.0
2015-Apr-24 23:27N 01°41' E 102°51'5513.2
2015-Apr-24 19:17N 01°11' E 103°37'911.9
2015-Apr-24 18:32N 01°09' E 103°45'1212.3
2015-Apr-24 17:33N 01°14' E 103°56'3 3.2
2015-Apr-24 16:32N 01°17' E 103°57'1 0.7
2015-Apr-24 15:27N 01°17' E 103°56'0 0.0
2015-Apr-24 14:30N 01°17' E 103°56'0 0.0
2015-Apr-24 13:33N 01°17' E 103°56'0 0.0
2015-Apr-24 12:24N 01°17' E 103°56'0 0.0
2015-Apr-24 11:18N 01°17' E 103°56'0 0.0
2015-Apr-24 10:33N 01°17' E 103°56'0 0.0
2015-Apr-24 09:33N 01°17' E 103°56'0 0.0
2015-Apr-24 08:33N 01°17' E 103°56'0 0.0
2015-Apr-24 07:30N 01°17' E 103°56'0 0.1
2015-Apr-24 06:33N 01°17' E 103°56'0 0.1
2015-Apr-24 05:24N 01°17' E 103°56'0 0.2
2015-Apr-24 04:33N 01°17' E 103°57'0 0.1
2015-Apr-24 03:15N 01°17' E 103°57'0 0.1
2015-Apr-24 02:33N 01°17' E 103°57'0 0.0
2015-Apr-24 01:33N 01°17' E 103°57'0 0.4
2015-Apr-24 00:33N 01°17' E 103°57'6 6.2
2015-Apr-23 23:33N 01°16' E 104°03'9 7.6
2015-Apr-23 22:25N 01°18' E 104°12'7 8.1
2015-Apr-23 21:32N 01°19' E 104°19'9 8.9
2015-Apr-23 20:32N 01°25' E 104°26'  
2015-Apr-18 19:30N 23°18' E 117°53'1413.5
2015-Apr-18 18:29N 23°27' E 118°04'1213.2
2015-Apr-18 17:32N 23°35' E 118°14'1412.7
2015-Apr-18 16:27N 23°44' E 118°26'2412.4
2015-Apr-18 14:32N 23°60' E 118°45'5610.7
2015-Apr-18 09:18N 24°37' E 119°32'2210.4
2015-Apr-18 07:14N 24°52' E 119°49'30312.8
2015-Apr-17 07:33N 29°18' E 122°31'1414.2
2015-Apr-17 06:33N 29°32' E 122°27'1413.9
2015-Apr-17 05:33N 29°44' E 122°20'1211.8
2015-Apr-17 04:33N 29°53' E 122°11'1111.2
2015-Apr-17 03:33N 29°57' E 121°59'5 5.0
2015-Apr-17 02:30N 30°02' E 121°59'0 0.1
2015-Apr-17 01:30N 30°02' E 121°59'0 0.0
2015-Apr-17 00:06N 30°02' E 121°59'0 0.0
2015-Apr-16 23:06N 30°02' E 121°59'0 0.0
2015-Apr-16 22:18N 30°02' E 121°59'0 0.0
2015-Apr-16 21:18N 30°02' E 121°59'0 0.0
2015-Apr-16 20:24N 30°02' E 121°59'0 0.0
2015-Apr-16 19:18N 30°02' E 121°59'0 0.0
2015-Apr-16 18:18N 30°02' E 121°59'0 0.0
2015-Apr-16 17:18N 30°02' E 121°59'0 0.0
2015-Apr-16 16:24N 30°02' E 121°59'0 0.1
2015-Apr-16 15:30N 30°02' E 121°59'0 0.0
2015-Apr-16 14:24N 30°02' E 121°59'0 0.0
2015-Apr-16 13:18N 30°02' E 121°59'0 0.1
2015-Apr-16 12:30N 30°02' E 121°59'0 0.0
2015-Apr-16 11:30N 30°02' E 121°59'0 0.0
2015-Apr-16 10:30N 30°02' E 121°59'0 0.0
2015-Apr-16 09:24N 30°02' E 121°59'0 0.0
2015-Apr-16 08:30N 30°02' E 121°59'0 0.0
2015-Apr-16 07:24N 30°02' E 121°59'0 0.0
2015-Apr-16 06:06N 30°02' E 121°59'0 0.1
2015-Apr-16 05:12N 30°02' E 121°59'0 0.0
2015-Apr-16 04:30N 30°02' E 121°59'0 0.0
2015-Apr-16 03:30N 30°02' E 121°59'0 0.0
2015-Apr-16 02:24N 30°02' E 121°59'0 0.0
2015-Apr-16 01:30N 30°02' E 121°59'0 0.0
2015-Apr-16 00:30N 30°02' E 121°59'0 0.0
2015-Apr-15 23:30N 30°02' E 121°59'0 0.0
2015-Apr-15 22:33N 30°02' E 121°59'0 0.0
2015-Apr-15 21:24N 30°02' E 121°59'0 0.0
2015-Apr-15 20:12N 30°02' E 121°59'0 0.0
2015-Apr-15 19:30N 30°02' E 121°59'0 0.0
2015-Apr-15 18:30N 30°02' E 121°59'0 0.0
2015-Apr-15 17:30N 30°02' E 121°59'0 0.0
2015-Apr-15 16:30N 30°02' E 121°59'0 0.0
2015-Apr-15 15:30N 30°02' E 121°59'0 0.1
2015-Apr-15 14:30N 30°02' E 121°59'0 0.1
2015-Apr-15 13:30N 30°02' E 121°59'0 0.0
2015-Apr-15 12:33N 30°02' E 121°59'0 0.0
2015-Apr-15 11:30N 30°02' E 121°59'0 0.0
2015-Apr-15 10:30N 30°02' E 121°59'0 0.1
2015-Apr-15 09:30N 30°02' E 121°59'0 0.0
2015-Apr-15 08:24N 30°02' E 121°59'0 0.0
2015-Apr-15 07:30N 30°02' E 121°59'0 0.1
2015-Apr-15 06:30N 30°02' E 121°59'0 0.0
2015-Apr-15 05:30N 30°02' E 121°59'0 0.0
2015-Apr-15 04:30N 30°02' E 121°59'0 0.0
2015-Apr-15 03:30N 30°02' E 121°59'  
Track history (hours):
 
Tides and Currents Weather Stations Pressure Air Temp Water Temp Dewpoint Dewpoint Depression Visibility Wind Speed Wind Dir Waves Ship Positions

Amalia

Last reported at 2015-Apr-25 03:15 UTC. Time now 2015-May-07 07:37 UTC.
Position N 02°05' E 102°07'.
Warning: this ship's position is 12 days out of date.

Length 225 m; draft 8.3 m.

Type: Cargo ship. MMSI: 239652000.

Date/timePositionNaut miles runAvg speedWind from/ knotsBaromVisibWave heightAir tempDewpointWater temp
2015-Apr-25 03:15N 02°05' E 102°07'1112.4
2015-Apr-25 02:22N 01°58' E 102°15'1112.9
2015-Apr-25 01:33N 01°53' E 102°24'1413.5
2015-Apr-25 00:32N 01°48' E 102°37'1514.0
2015-Apr-24 23:27N 01°41' E 102°51'5513.2
2015-Apr-24 19:17N 01°11' E 103°37'911.9
2015-Apr-24 18:32N 01°09' E 103°45'1212.3
2015-Apr-24 17:33N 01°14' E 103°56'3 3.2
2015-Apr-24 16:32N 01°17' E 103°57'1 0.7
2015-Apr-24 15:27N 01°17' E 103°56'0 0.0
2015-Apr-24 14:30N 01°17' E 103°56'0 0.0
2015-Apr-24 13:33N 01°17' E 103°56'0 0.0
2015-Apr-24 12:24N 01°17' E 103°56'0 0.0
2015-Apr-24 11:18N 01°17' E 103°56'0 0.0
2015-Apr-24 10:33N 01°17' E 103°56'0 0.0
2015-Apr-24 09:33N 01°17' E 103°56'0 0.0
2015-Apr-24 08:33N 01°17' E 103°56'0 0.0
2015-Apr-24 07:30N 01°17' E 103°56'0 0.1
2015-Apr-24 06:33N 01°17' E 103°56'0 0.1
2015-Apr-24 05:24N 01°17' E 103°56'0 0.2
2015-Apr-24 04:33N 01°17' E 103°57'0 0.1
2015-Apr-24 03:15N 01°17' E 103°57'0 0.1
2015-Apr-24 02:33N 01°17' E 103°57'0 0.0
2015-Apr-24 01:33N 01°17' E 103°57'0 0.4
2015-Apr-24 00:33N 01°17' E 103°57'6 6.2
2015-Apr-23 23:33N 01°16' E 104°03'9 7.6
2015-Apr-23 22:25N 01°18' E 104°12'7 8.1
2015-Apr-23 21:32N 01°19' E 104°19'9 8.9
2015-Apr-23 20:32N 01°25' E 104°26'  
2015-Apr-18 19:30N 23°18' E 117°53'1413.5
2015-Apr-18 18:29N 23°27' E 118°04'1213.2
2015-Apr-18 17:32N 23°35' E 118°14'1412.7
2015-Apr-18 16:27N 23°44' E 118°26'2412.4
2015-Apr-18 14:32N 23°60' E 118°45'5610.7
2015-Apr-18 09:18N 24°37' E 119°32'2210.4
2015-Apr-18 07:14N 24°52' E 119°49'30312.8
2015-Apr-17 07:33N 29°18' E 122°31'1414.2
2015-Apr-17 06:33N 29°32' E 122°27'1413.9
2015-Apr-17 05:33N 29°44' E 122°20'1211.8
2015-Apr-17 04:33N 29°53' E 122°11'1111.2
2015-Apr-17 03:33N 29°57' E 121°59'5 5.0
2015-Apr-17 02:30N 30°02' E 121°59'0 0.1
2015-Apr-17 01:30N 30°02' E 121°59'0 0.0
2015-Apr-17 00:06N 30°02' E 121°59'0 0.0
2015-Apr-16 23:06N 30°02' E 121°59'0 0.0
2015-Apr-16 22:18N 30°02' E 121°59'0 0.0
2015-Apr-16 21:18N 30°02' E 121°59'0 0.0
2015-Apr-16 20:24N 30°02' E 121°59'0 0.0
2015-Apr-16 19:18N 30°02' E 121°59'0 0.0
2015-Apr-16 18:18N 30°02' E 121°59'0 0.0
2015-Apr-16 17:18N 30°02' E 121°59'0 0.0
2015-Apr-16 16:24N 30°02' E 121°59'0 0.1
2015-Apr-16 15:30N 30°02' E 121°59'0 0.0
2015-Apr-16 14:24N 30°02' E 121°59'0 0.0
2015-Apr-16 13:18N 30°02' E 121°59'0 0.1
2015-Apr-16 12:30N 30°02' E 121°59'0 0.0
2015-Apr-16 11:30N 30°02' E 121°59'0 0.0
2015-Apr-16 10:30N 30°02' E 121°59'0 0.0
2015-Apr-16 09:24N 30°02' E 121°59'0 0.0
2015-Apr-16 08:30N 30°02' E 121°59'0 0.0
2015-Apr-16 07:24N 30°02' E 121°59'0 0.0
2015-Apr-16 06:06N 30°02' E 121°59'0 0.1
2015-Apr-16 05:12N 30°02' E 121°59'0 0.0
2015-Apr-16 04:30N 30°02' E 121°59'0 0.0
2015-Apr-16 03:30N 30°02' E 121°59'0 0.0
2015-Apr-16 02:24N 30°02' E 121°59'0 0.0
2015-Apr-16 01:30N 30°02' E 121°59'0 0.0
2015-Apr-16 00:30N 30°02' E 121°59'0 0.0
2015-Apr-15 23:30N 30°02' E 121°59'0 0.0
2015-Apr-15 22:33N 30°02' E 121°59'0 0.0
2015-Apr-15 21:24N 30°02' E 121°59'0 0.0
2015-Apr-15 20:12N 30°02' E 121°59'0 0.0
2015-Apr-15 19:30N 30°02' E 121°59'0 0.0
2015-Apr-15 18:30N 30°02' E 121°59'0 0.0
2015-Apr-15 17:30N 30°02' E 121°59'0 0.0
2015-Apr-15 16:30N 30°02' E 121°59'0 0.0
2015-Apr-15 15:30N 30°02' E 121°59'0 0.1
2015-Apr-15 14:30N 30°02' E 121°59'0 0.1
2015-Apr-15 13:30N 30°02' E 121°59'0 0.0
2015-Apr-15 12:33N 30°02' E 121°59'0 0.0
2015-Apr-15 11:30N 30°02' E 121°59'0 0.0
2015-Apr-15 10:30N 30°02' E 121°59'0 0.1
2015-Apr-15 09:30N 30°02' E 121°59'0 0.0
2015-Apr-15 08:24N 30°02' E 121°59'0 0.0
2015-Apr-15 07:30N 30°02' E 121°59'0 0.1
2015-Apr-15 06:30N 30°02' E 121°59'0 0.0
2015-Apr-15 05:30N 30°02' E 121°59'0 0.0
2015-Apr-15 04:30N 30°02' E 121°59'0 0.0
2015-Apr-15 03:30N 30°02' E 121°59'  

Dump ship's entire track history